Terminal Aerodrome Forecast
Issued by NWS

Home | Current Version | Previous Version | Text Only | Print | Product List | Glossary Off
Versions: 1 2 3 4 5 6 7 8 9 10 11 12 13 14 15 16 17 18 19

000
FTUS43 KABR 101130
TAFATY
TAF
KATY 101130Z 1012/1112 32011KT P6SM SCT060 BKN120
     FM102300 27008KT P6SM BKN200
     FM111100 30016G24KT P6SM BKN050=

USA.gov is the U.S. government's official web portal to all federal, state and local government web resources and services.